Home   Weather   Poland   Gdynia   Past weeks
Flag for Poland

Past Weather in Gdynia, Poland — Yesterday and Last 2 Weeks

Currently: 52 °F. Clear. (Weather station: Gdansk-Rebiechowo, Poland). See more current weather

Past Weather in Gdynia — Graph

°F

Gdynia Temperature Yesterday

Maximum temperature yesterday: 70 °F (at 4:00 pm)
Minimum temperature yesterday: 45 °F (at 4:00 am)
Average temperature yesterday: 59 °F

High & Low Weather Summary for the Past Weeks

 TemperatureHumidityPressure
High75 °F (May 3, 2:00 pm)100% (May 4, 5:00 am)30.33 "Hg (May 4, 5:00 am)
Low34 °F (May 8, 3:00 am)28% (May 16, 5:00 pm)29.68 "Hg (May 6, 2:00 am)
Average53 °F66%30.08 "Hg
* Reported May 3 2:00 am — May 18 2:00 am, Gdynia. Weather by CustomWeather, © 2024

Note: Actual official high and low records may vary slightly from our data, if they occured in-between our weather recording intervals... More about our weather records

Gdynia Weather History for the Previous 24 Hours

Scroll right to see more
 ConditionsComfort  
Time TempWeatherWind HumidityBarometerVisibility
2:00 am
Sat, May 18
52 °FClear.8 mph58%30.01 "Hg10 mi
1:30 am54 °FClear.8 mph58%30.01 "Hg10 mi
1:00 am52 °FClear.7 mph62%30.01 "Hg10 mi
12:30 am55 °FClear.8 mph55%30.01 "Hg10 mi
12:00 am55 °FClear.9 mph55%30.01 "Hg10 mi
11:30 pm
Fri, May 17
57 °FClear.9 mph51%30.01 "Hg10 mi
11:00 pm57 °FClear.8 mph51%30.01 "Hg10 mi
10:30 pm57 °FClear.8 mph51%30.01 "Hg10 mi
10:00 pm59 °FClear.9 mph48%30.01 "Hg10 mi
9:30 pm59 °FClear.9 mph51%30.01 "Hg10 mi
9:00 pm61 °FClear.8 mph48%30.01 "Hg10 mi
8:30 pm63 °FSunny.9 mph42%30.01 "Hg10 mi
8:00 pm63 °FSunny.9 mph42%30.01 "Hg10 mi
7:30 pm64 °FSunny.9 mph40%30.01 "Hg10 mi
7:00 pm66 °FSunny.12 mph37%30.01 "Hg10 mi
6:30 pm66 °FSunny.13 mph35%30.01 "Hg10 mi
6:00 pm68 °FSunny.14 mph35%30.01 "Hg10 mi
5:30 pm68 °FSunny.14 mph33%30.01 "Hg10 mi
5:00 pm68 °FSunny.13 mph33%30.04 "Hg10 mi
4:30 pm68 °FSunny.15 mph30%30.04 "Hg10 mi
4:00 pm70 °FPassing clouds.13 mph33%30.04 "HgN/A
3:30 pm68 °FSunny.14 mph33%30.04 "Hg10 mi
3:00 pm68 °FSunny.17 mph28%30.07 "Hg10 mi
2:30 pm68 °FSunny.21 mph28%30.07 "Hg10 mi
2:00 pm68 °FSunny.20 mph33%30.07 "Hg10 mi
1:00 pm66 °FPassing clouds.20 mph30%30.09 "HgN/A
12:30 pm66 °FSunny.20 mph32%30.09 "Hg10 mi
12:00 pm66 °FSunny.21 mph32%30.09 "Hg10 mi
11:30 am64 °FSunny.21 mph32%30.12 "Hg10 mi
11:00 am63 °FSunny.21 mph34%30.12 "Hg10 mi
10:30 am63 °FSunny.22 mph32%30.12 "Hg10 mi
10:00 am63 °FSunny.22 mph37%30.12 "Hg10 mi
9:30 am61 °FSunny.15 mph42%30.12 "Hg10 mi
9:00 am59 °FSunny.14 mph45%30.15 "Hg10 mi
8:00 am55 °FSunny.13 mph51%30.15 "Hg10 mi
7:30 am54 °FSunny.14 mph51%30.15 "Hg10 mi
7:00 am54 °FSunny.14 mph51%30.12 "Hg10 mi
6:30 am52 °FSunny.13 mph54%30.12 "Hg10 mi
6:00 am50 °FSunny.12 mph58%30.12 "Hg10 mi
5:30 am46 °FSunny.9 mph66%30.12 "Hg10 mi
5:00 am46 °FSunny.9 mph66%30.12 "Hg10 mi
4:30 am45 °FClear.9 mph71%30.12 "Hg10 mi
4:00 am45 °FClear.9 mph71%30.12 "Hg10 mi
3:30 am46 °FClear.8 mph66%30.12 "Hg10 mi
3:00 am48 °FClear.10 mph62%30.12 "Hg10 mi
Weather by CustomWeather, © 2024

See weather overview